sensor_id;sensor_type;location;lat;lon;timestamp;P1;durP1;ratioP1;P2;durP2;ratioP2
13331;SDS011;6735;51.456;12.626;2022-07-23T00:01:34;7.70;;;7.00;;
13331;SDS011;6735;51.456;12.626;2022-07-23T00:03:59;7.50;;;6.90;;
13331;SDS011;6735;51.456;12.626;2022-07-23T00:06:25;8.57;;;6.80;;
13331;SDS011;6735;51.456;12.626;2022-07-23T00:08:50;7.43;;;6.83;;
13331;SDS011;6735;51.456;12.626;2022-07-23T00:11:16;7.60;;;7.00;;
13331;SDS011;6735;51.456;12.626;2022-07-23T00:13:42;7.13;;;6.53;;
13331;SDS011;6735;51.456;12.626;2022-07-23T00:16:08;7.60;;;6.80;;
13331;SDS011;6735;51.456;12.626;2022-07-23T00:18:34;7.37;;;6.83;;
13331;SDS011;6735;51.456;12.626;2022-07-23T00:20:59;7.83;;;7.23;;
13331;SDS011;6735;51.456;12.626;2022-07-23T00:23:25;7.37;;;6.77;;
13331;SDS011;6735;51.456;12.626;2022-07-23T00:25:52;7.70;;;7.10;;
13331;SDS011;6735;51.456;12.626;2022-07-23T00:28:17;7.93;;;7.33;;
13331;SDS011;6735;51.456;12.626;2022-07-23T00:30:44;7.67;;;6.87;;
13331;SDS011;6735;51.456;12.626;2022-07-23T00:33:10;7.43;;;6.73;;
13331;SDS011;6735;51.456;12.626;2022-07-23T00:35:37;9.03;;;7.20;;
13331;SDS011;6735;51.456;12.626;2022-07-23T00:38:08;8.20;;;7.50;;
13331;SDS011;6735;51.456;12.626;2022-07-23T00:40:34;7.47;;;6.87;;
13331;SDS011;6735;51.456;12.626;2022-07-23T00:43:01;7.67;;;7.00;;
13331;SDS011;6735;51.456;12.626;2022-07-23T00:45:27;8.10;;;7.10;;
13331;SDS011;6735;51.456;12.626;2022-07-23T00:47:54;7.80;;;7.20;;
13331;SDS011;6735;51.456;12.626;2022-07-23T00:50:20;7.27;;;6.77;;
13331;SDS011;6735;51.456;12.626;2022-07-23T00:52:45;7.67;;;7.03;;
13331;SDS011;6735;51.456;12.626;2022-07-23T00:55:11;7.80;;;7.10;;
13331;SDS011;6735;51.456;12.626;2022-07-23T00:57:38;7.83;;;7.23;;
13331;SDS011;6735;51.456;12.626;2022-07-23T01:00:05;7.73;;;6.93;;
13331;SDS011;6735;51.456;12.626;2022-07-23T01:02:34;7.40;;;6.70;;
13331;SDS011;6735;51.456;12.626;2022-07-23T01:05:00;7.20;;;6.70;;
13331;SDS011;6735;51.456;12.626;2022-07-23T01:07:25;8.40;;;7.60;;
13331;SDS011;6735;51.456;12.626;2022-07-23T01:09:51;8.00;;;7.30;;
13331;SDS011;6735;51.456;12.626;2022-07-23T01:12:17;7.87;;;7.27;;
13331;SDS011;6735;51.456;12.626;2022-07-23T01:14:43;8.00;;;7.23;;
13331;SDS011;6735;51.456;12.626;2022-07-23T01:17:09;8.30;;;7.50;;
13331;SDS011;6735;51.456;12.626;2022-07-23T01:19:34;8.27;;;7.57;;
13331;SDS011;6735;51.456;12.626;2022-07-23T01:22:02;7.67;;;7.00;;
13331;SDS011;6735;51.456;12.626;2022-07-23T01:24:29;8.03;;;7.33;;
13331;SDS011;6735;51.456;12.626;2022-07-23T01:26:54;7.50;;;6.90;;
13331;SDS011;6735;51.456;12.626;2022-07-23T01:29:20;7.70;;;7.10;;
13331;SDS011;6735;51.456;12.626;2022-07-23T01:31:46;8.00;;;7.30;;
13331;SDS011;6735;51.456;12.626;2022-07-23T01:34:12;8.50;;;7.70;;
13331;SDS011;6735;51.456;12.626;2022-07-23T01:36:38;8.40;;;7.70;;
13331;SDS011;6735;51.456;12.626;2022-07-23T01:39:04;8.30;;;7.60;;
13331;SDS011;6735;51.456;12.626;2022-07-23T01:41:32;8.13;;;7.37;;
13331;SDS011;6735;51.456;12.626;2022-07-23T01:43:57;7.90;;;7.20;;
13331;SDS011;6735;51.456;12.626;2022-07-23T01:46:23;8.13;;;7.43;;
13331;SDS011;6735;51.456;12.626;2022-07-23T01:48:48;8.60;;;7.80;;
13331;SDS011;6735;51.456;12.626;2022-07-23T01:51:14;8.80;;;8.00;;
13331;SDS011;6735;51.456;12.626;2022-07-23T01:53:40;8.60;;;7.90;;
13331;SDS011;6735;51.456;12.626;2022-07-23T01:56:05;8.77;;;8.07;;
13331;SDS011;6735;51.456;12.626;2022-07-23T01:58:31;9.23;;;7.60;;
13331;SDS011;6735;51.456;12.626;2022-07-23T02:00:57;8.23;;;7.53;;
13331;SDS011;6735;51.456;12.626;2022-07-23T02:03:23;7.90;;;7.30;;
13331;SDS011;6735;51.456;12.626;2022-07-23T02:05:48;8.43;;;7.73;;
13331;SDS011;6735;51.456;12.626;2022-07-23T02:08:14;8.87;;;7.97;;
13331;SDS011;6735;51.456;12.626;2022-07-23T02:10:40;8.40;;;7.70;;
13331;SDS011;6735;51.456;12.626;2022-07-23T02:13:05;8.87;;;7.87;;
13331;SDS011;6735;51.456;12.626;2022-07-23T02:15:31;8.37;;;7.70;;
13331;SDS011;6735;51.456;12.626;2022-07-23T02:17:57;9.07;;;8.27;;
13331;SDS011;6735;51.456;12.626;2022-07-23T02:20:22;8.47;;;7.77;;
13331;SDS011;6735;51.456;12.626;2022-07-23T02:22:48;8.63;;;8.03;;
13331;SDS011;6735;51.456;12.626;2022-07-23T02:25:14;9.40;;;8.40;;
13331;SDS011;6735;51.456;12.626;2022-07-23T02:27:39;10.07;;;9.27;;
13331;SDS011;6735;51.456;12.626;2022-07-23T02:30:06;9.60;;;8.70;;
13331;SDS011;6735;51.456;12.626;2022-07-23T02:32:33;9.10;;;8.30;;
13331;SDS011;6735;51.456;12.626;2022-07-23T02:34:59;10.33;;;9.37;;
13331;SDS011;6735;51.456;12.626;2022-07-23T02:37:25;8.67;;;7.90;;
13331;SDS011;6735;51.456;12.626;2022-07-23T02:39:50;9.27;;;8.40;;
13331;SDS011;6735;51.456;12.626;2022-07-23T02:42:16;9.47;;;8.67;;
13331;SDS011;6735;51.456;12.626;2022-07-23T02:44:42;9.83;;;8.93;;
13331;SDS011;6735;51.456;12.626;2022-07-23T02:47:08;10.67;;;9.77;;
13331;SDS011;6735;51.456;12.626;2022-07-23T02:49:33;10.17;;;9.17;;
13331;SDS011;6735;51.456;12.626;2022-07-23T02:51:59;10.63;;;9.63;;
13331;SDS011;6735;51.456;12.626;2022-07-23T02:54:24;10.70;;;9.80;;
13331;SDS011;6735;51.456;12.626;2022-07-23T02:56:50;11.27;;;10.40;;
13331;SDS011;6735;51.456;12.626;2022-07-23T02:59:16;10.90;;;9.90;;
13331;SDS011;6735;51.456;12.626;2022-07-23T03:01:42;10.27;;;9.37;;
13331;SDS011;6735;51.456;12.626;2022-07-23T03:04:08;11.83;;;10.63;;
13331;SDS011;6735;51.456;12.626;2022-07-23T03:06:33;11.23;;;10.27;;
13331;SDS011;6735;51.456;12.626;2022-07-23T03:08:59;10.77;;;9.83;;
13331;SDS011;6735;51.456;12.626;2022-07-23T03:11:24;10.67;;;9.77;;
13331;SDS011;6735;51.456;12.626;2022-07-23T03:13:50;11.10;;;10.00;;
13331;SDS011;6735;51.456;12.626;2022-07-23T03:16:15;11.20;;;10.20;;
13331;SDS011;6735;51.456;12.626;2022-07-23T03:18:41;11.43;;;10.53;;
13331;SDS011;6735;51.456;12.626;2022-07-23T03:21:06;10.70;;;9.80;;
13331;SDS011;6735;51.456;12.626;2022-07-23T03:23:32;11.00;;;10.00;;
13331;SDS011;6735;51.456;12.626;2022-07-23T03:25:57;11.57;;;10.40;;
13331;SDS011;6735;51.456;12.626;2022-07-23T03:28:23;10.50;;;9.60;;
13331;SDS011;6735;51.456;12.626;2022-07-23T03:30:48;10.50;;;9.60;;
13331;SDS011;6735;51.456;12.626;2022-07-23T03:33:14;10.83;;;9.83;;
13331;SDS011;6735;51.456;12.626;2022-07-23T03:35:41;10.50;;;9.50;;
13331;SDS011;6735;51.456;12.626;2022-07-23T03:38:07;10.40;;;9.50;;
13331;SDS011;6735;51.456;12.626;2022-07-23T03:40:33;10.50;;;9.63;;
13331;SDS011;6735;51.456;12.626;2022-07-23T03:42:58;11.67;;;9.53;;
13331;SDS011;6735;51.456;12.626;2022-07-23T03:45:24;11.23;;;10.00;;
13331;SDS011;6735;51.456;12.626;2022-07-23T03:47:49;10.60;;;9.70;;
13331;SDS011;6735;51.456;12.626;2022-07-23T03:50:15;10.27;;;9.37;;
13331;SDS011;6735;51.456;12.626;2022-07-23T03:52:40;10.80;;;9.73;;
13331;SDS011;6735;51.456;12.626;2022-07-23T03:55:06;10.90;;;10.00;;
13331;SDS011;6735;51.456;12.626;2022-07-23T03:57:32;11.70;;;10.70;;
13331;SDS011;6735;51.456;12.626;2022-07-23T03:59:57;11.60;;;10.50;;
13331;SDS011;6735;51.456;12.626;2022-07-23T04:02:23;11.50;;;10.50;;
13331;SDS011;6735;51.456;12.626;2022-07-23T04:04:48;11.70;;;10.67;;
13331;SDS011;6735;51.456;12.626;2022-07-23T04:07:14;11.20;;;10.17;;
13331;SDS011;6735;51.456;12.626;2022-07-23T04:09:40;10.87;;;9.93;;
13331;SDS011;6735;51.456;12.626;2022-07-23T04:12:05;10.87;;;9.97;;
13331;SDS011;6735;51.456;12.626;2022-07-23T04:14:31;10.83;;;9.90;;
13331;SDS011;6735;51.456;12.626;2022-07-23T04:16:57;10.63;;;9.73;;
13331;SDS011;6735;51.456;12.626;2022-07-23T04:19:23;10.77;;;9.77;;
13331;SDS011;6735;51.456;12.626;2022-07-23T04:21:48;11.07;;;9.97;;
13331;SDS011;6735;51.456;12.626;2022-07-23T04:24:14;11.07;;;10.07;;
13331;SDS011;6735;51.456;12.626;2022-07-23T04:26:39;10.97;;;10.00;;
13331;SDS011;6735;51.456;12.626;2022-07-23T04:29:05;10.10;;;9.30;;
13331;SDS011;6735;51.456;12.626;2022-07-23T04:31:30;9.70;;;8.87;;
13331;SDS011;6735;51.456;12.626;2022-07-23T04:33:56;10.60;;;9.70;;
13331;SDS011;6735;51.456;12.626;2022-07-23T04:36:21;9.70;;;8.80;;
13331;SDS011;6735;51.456;12.626;2022-07-23T04:38:46;9.47;;;8.53;;
13331;SDS011;6735;51.456;12.626;2022-07-23T04:41:12;8.43;;;7.73;;
13331;SDS011;6735;51.456;12.626;2022-07-23T04:43:37;9.33;;;8.40;;
13331;SDS011;6735;51.456;12.626;2022-07-23T04:46:03;10.17;;;9.17;;
13331;SDS011;6735;51.456;12.626;2022-07-23T04:48:28;11.07;;;9.93;;
13331;SDS011;6735;51.456;12.626;2022-07-23T04:50:54;11.80;;;10.80;;
13331;SDS011;6735;51.456;12.626;2022-07-23T04:53:19;10.93;;;9.93;;
13331;SDS011;6735;51.456;12.626;2022-07-23T04:55:45;11.33;;;9.47;;
13331;SDS011;6735;51.456;12.626;2022-07-23T04:58:11;9.70;;;8.47;;
13331;SDS011;6735;51.456;12.626;2022-07-23T05:00:36;9.87;;;9.07;;
13331;SDS011;6735;51.456;12.626;2022-07-23T05:03:02;10.53;;;9.23;;
13331;SDS011;6735;51.456;12.626;2022-07-23T05:05:28;10.30;;;9.20;;
13331;SDS011;6735;51.456;12.626;2022-07-23T05:07:53;10.70;;;9.47;;
13331;SDS011;6735;51.456;12.626;2022-07-23T05:10:18;10.80;;;9.70;;
13331;SDS011;6735;51.456;12.626;2022-07-23T05:12:44;11.10;;;10.10;;
13331;SDS011;6735;51.456;12.626;2022-07-23T05:15:10;10.80;;;9.60;;
13331;SDS011;6735;51.456;12.626;2022-07-23T05:17:35;11.23;;;9.70;;
13331;SDS011;6735;51.456;12.626;2022-07-23T05:20:01;13.87;;;9.53;;
13331;SDS011;6735;51.456;12.626;2022-07-23T05:22:26;12.03;;;10.80;;
13331;SDS011;6735;51.456;12.626;2022-07-23T05:24:52;11.20;;;10.20;;
13331;SDS011;6735;51.456;12.626;2022-07-23T05:27:17;11.50;;;10.30;;
13331;SDS011;6735;51.456;12.626;2022-07-23T05:29:43;10.73;;;9.73;;
13331;SDS011;6735;51.456;12.626;2022-07-23T05:32:08;10.70;;;9.70;;
13331;SDS011;6735;51.456;12.626;2022-07-23T05:34:34;10.83;;;9.73;;
13331;SDS011;6735;51.456;12.626;2022-07-23T05:36:59;11.47;;;10.30;;
13331;SDS011;6735;51.456;12.626;2022-07-23T05:39:25;12.70;;;9.53;;
13331;SDS011;6735;51.456;12.626;2022-07-23T05:41:50;10.47;;;9.53;;
13331;SDS011;6735;51.456;12.626;2022-07-23T05:44:15;10.07;;;9.13;;
13331;SDS011;6735;51.456;12.626;2022-07-23T05:46:41;13.00;;;9.90;;
13331;SDS011;6735;51.456;12.626;2022-07-23T05:49:06;11.03;;;9.43;;
13331;SDS011;6735;51.456;12.626;2022-07-23T05:51:32;11.83;;;9.83;;
13331;SDS011;6735;51.456;12.626;2022-07-23T05:53:57;11.17;;;10.17;;
13331;SDS011;6735;51.456;12.626;2022-07-23T05:56:23;11.57;;;10.47;;
13331;SDS011;6735;51.456;12.626;2022-07-23T05:58:48;10.80;;;9.70;;
13331;SDS011;6735;51.456;12.626;2022-07-23T06:01:14;11.17;;;10.07;;
13331;SDS011;6735;51.456;12.626;2022-07-23T06:03:39;10.93;;;9.83;;
13331;SDS011;6735;51.456;12.626;2022-07-23T06:06:05;11.33;;;10.23;;
13331;SDS011;6735;51.456;12.626;2022-07-23T06:08:31;10.83;;;9.73;;
13331;SDS011;6735;51.456;12.626;2022-07-23T06:10:56;10.93;;;9.83;;
13331;SDS011;6735;51.456;12.626;2022-07-23T06:13:22;11.70;;;9.70;;
13331;SDS011;6735;51.456;12.626;2022-07-23T06:15:47;10.20;;;9.20;;
13331;SDS011;6735;51.456;12.626;2022-07-23T06:18:13;10.87;;;9.80;;
13331;SDS011;6735;51.456;12.626;2022-07-23T06:20:39;10.43;;;9.37;;
13331;SDS011;6735;51.456;12.626;2022-07-23T06:23:04;10.23;;;9.23;;
13331;SDS011;6735;51.456;12.626;2022-07-23T06:25:30;10.37;;;9.30;;
13331;SDS011;6735;51.456;12.626;2022-07-23T06:27:56;8.93;;;8.17;;
13331;SDS011;6735;51.456;12.626;2022-07-23T06:30:21;9.53;;;8.63;;
13331;SDS011;6735;51.456;12.626;2022-07-23T06:32:47;11.70;;;8.63;;
13331;SDS011;6735;51.456;12.626;2022-07-23T06:35:13;9.77;;;8.80;;
13331;SDS011;6735;51.456;12.626;2022-07-23T06:37:39;9.53;;;8.53;;
13331;SDS011;6735;51.456;12.626;2022-07-23T06:40:05;9.47;;;8.50;;
13331;SDS011;6735;51.456;12.626;2022-07-23T06:42:31;8.90;;;8.00;;
13331;SDS011;6735;51.456;12.626;2022-07-23T06:44:56;9.83;;;8.70;;
13331;SDS011;6735;51.456;12.626;2022-07-23T06:47:22;11.87;;;9.10;;
13331;SDS011;6735;51.456;12.626;2022-07-23T06:49:47;9.70;;;8.70;;
13331;SDS011;6735;51.456;12.626;2022-07-23T06:52:13;8.70;;;7.53;;
13331;SDS011;6735;51.456;12.626;2022-07-23T06:54:39;8.90;;;7.63;;
13331;SDS011;6735;51.456;12.626;2022-07-23T06:57:04;7.63;;;7.00;;
13331;SDS011;6735;51.456;12.626;2022-07-23T06:59:30;8.07;;;7.13;;
13331;SDS011;6735;51.456;12.626;2022-07-23T07:01:55;7.00;;;6.30;;
13331;SDS011;6735;51.456;12.626;2022-07-23T07:04:22;7.37;;;6.57;;
13331;SDS011;6735;51.456;12.626;2022-07-23T07:06:47;7.23;;;6.53;;
13331;SDS011;6735;51.456;12.626;2022-07-23T07:09:13;7.33;;;6.53;;
13331;SDS011;6735;51.456;12.626;2022-07-23T07:11:38;8.30;;;6.53;;
13331;SDS011;6735;51.456;12.626;2022-07-23T07:14:04;9.93;;;6.90;;
13331;SDS011;6735;51.456;12.626;2022-07-23T07:16:30;7.53;;;6.90;;
13331;SDS011;6735;51.456;12.626;2022-07-23T07:18:55;7.73;;;6.93;;
13331;SDS011;6735;51.456;12.626;2022-07-23T07:21:20;8.03;;;7.07;;
13331;SDS011;6735;51.456;12.626;2022-07-23T07:23:46;7.23;;;6.73;;
13331;SDS011;6735;51.456;12.626;2022-07-23T07:26:11;7.83;;;6.73;;
13331;SDS011;6735;51.456;12.626;2022-07-23T07:28:37;13.40;;;8.20;;
13331;SDS011;6735;51.456;12.626;2022-07-23T07:31:02;9.03;;;8.13;;
13331;SDS011;6735;51.456;12.626;2022-07-23T07:33:28;8.50;;;7.63;;
13331;SDS011;6735;51.456;12.626;2022-07-23T07:35:54;10.50;;;7.80;;
13331;SDS011;6735;51.456;12.626;2022-07-23T07:38:19;8.60;;;7.73;;
13331;SDS011;6735;51.456;12.626;2022-07-23T07:40:45;8.63;;;7.83;;
13331;SDS011;6735;51.456;12.626;2022-07-23T07:43:10;11.23;;;9.03;;
13331;SDS011;6735;51.456;12.626;2022-07-23T07:45:36;9.50;;;8.50;;
13331;SDS011;6735;51.456;12.626;2022-07-23T07:48:02;9.63;;;8.73;;
13331;SDS011;6735;51.456;12.626;2022-07-23T07:50:27;9.60;;;8.60;;
13331;SDS011;6735;51.456;12.626;2022-07-23T07:52:53;11.63;;;8.50;;
13331;SDS011;6735;51.456;12.626;2022-07-23T07:55:18;9.77;;;8.93;;
13331;SDS011;6735;51.456;12.626;2022-07-23T07:57:44;10.17;;;9.23;;
13331;SDS011;6735;51.456;12.626;2022-07-23T08:00:09;12.97;;;9.90;;
13331;SDS011;6735;51.456;12.626;2022-07-23T08:02:49;10.57;;;9.40;;
13331;SDS011;6735;51.456;12.626;2022-07-23T08:05:20;11.50;;;9.50;;
13331;SDS011;6735;51.456;12.626;2022-07-23T08:07:50;10.40;;;9.50;;
13331;SDS011;6735;51.456;12.626;2022-07-23T08:10:16;11.97;;;9.73;;
13331;SDS011;6735;51.456;12.626;2022-07-23T08:12:42;12.00;;;10.87;;
13331;SDS011;6735;51.456;12.626;2022-07-23T08:15:10;12.17;;;10.87;;
13331;SDS011;6735;51.456;12.626;2022-07-23T08:17:36;11.80;;;10.60;;
13331;SDS011;6735;51.456;12.626;2022-07-23T08:20:02;11.83;;;10.80;;
13331;SDS011;6735;51.456;12.626;2022-07-23T08:22:45;12.80;;;11.60;;
13331;SDS011;6735;51.456;12.626;2022-07-23T08:25:28;12.63;;;11.43;;
13331;SDS011;6735;51.456;12.626;2022-07-23T08:27:56;12.40;;;11.30;;
13331;SDS011;6735;51.456;12.626;2022-07-23T08:30:22;12.50;;;11.50;;
13331;SDS011;6735;51.456;12.626;2022-07-23T08:32:52;13.37;;;12.23;;
13331;SDS011;6735;51.456;12.626;2022-07-23T08:35:22;13.80;;;12.57;;
13331;SDS011;6735;51.456;12.626;2022-07-23T08:37:49;13.50;;;12.40;;
13331;SDS011;6735;51.456;12.626;2022-07-23T08:40:14;13.20;;;12.10;;
13331;SDS011;6735;51.456;12.626;2022-07-23T08:42:40;13.60;;;12.40;;
13331;SDS011;6735;51.456;12.626;2022-07-23T08:45:06;13.73;;;12.57;;
13331;SDS011;6735;51.456;12.626;2022-07-23T08:47:34;18.83;;;12.37;;
13331;SDS011;6735;51.456;12.626;2022-07-23T08:50:01;12.57;;;11.37;;
13331;SDS011;6735;51.456;12.626;2022-07-23T08:52:27;11.37;;;10.23;;
13331;SDS011;6735;51.456;12.626;2022-07-23T08:54:55;11.40;;;10.40;;
13331;SDS011;6735;51.456;12.626;2022-07-23T08:57:22;10.87;;;9.87;;
13331;SDS011;6735;51.456;12.626;2022-07-23T08:59:47;10.70;;;9.77;;
13331;SDS011;6735;51.456;12.626;2022-07-23T09:02:13;12.10;;;10.97;;
13331;SDS011;6735;51.456;12.626;2022-07-23T09:04:39;9.87;;;9.07;;
13331;SDS011;6735;51.456;12.626;2022-07-23T09:07:04;10.60;;;9.70;;
13331;SDS011;6735;51.456;12.626;2022-07-23T09:09:30;10.73;;;9.73;;
13331;SDS011;6735;51.456;12.626;2022-07-23T09:12:29;11.20;;;10.27;;
13331;SDS011;6735;51.456;12.626;2022-07-23T09:14:50;10.93;;;9.83;;
13331;SDS011;6735;51.456;12.626;2022-07-23T09:17:16;11.07;;;10.00;;
13331;SDS011;6735;51.456;12.626;2022-07-23T09:19:43;11.00;;;9.97;;
13331;SDS011;6735;51.456;12.626;2022-07-23T09:25:06;10.47;;;9.50;;
13331;SDS011;6735;51.456;12.626;2022-07-23T09:27:51;10.90;;;10.00;;
13331;SDS011;6735;51.456;12.626;2022-07-23T09:30:20;11.07;;;10.03;;
13331;SDS011;6735;51.456;12.626;2022-07-23T09:33:06;10.53;;;9.53;;
13331;SDS011;6735;51.456;12.626;2022-07-23T09:38:15;10.27;;;9.20;;
13331;SDS011;6735;51.456;12.626;2022-07-23T09:40:42;10.27;;;9.37;;
13331;SDS011;6735;51.456;12.626;2022-07-23T09:43:08;10.10;;;9.30;;
13331;SDS011;6735;51.456;12.626;2022-07-23T09:45:34;9.27;;;8.47;;
13331;SDS011;6735;51.456;12.626;2022-07-23T09:48:10;10.00;;;8.93;;
13331;SDS011;6735;51.456;12.626;2022-07-23T09:50:36;10.40;;;9.40;;
13331;SDS011;6735;51.456;12.626;2022-07-23T09:53:01;10.73;;;9.60;;
13331;SDS011;6735;51.456;12.626;2022-07-23T09:55:31;8.70;;;8.00;;
13331;SDS011;6735;51.456;12.626;2022-07-23T09:58:01;10.17;;;9.30;;
13331;SDS011;6735;51.456;12.626;2022-07-23T10:00:27;10.63;;;9.73;;
13331;SDS011;6735;51.456;12.626;2022-07-23T10:02:54;10.00;;;9.17;;
13331;SDS011;6735;51.456;12.626;2022-07-23T10:05:20;12.63;;;9.97;;
13331;SDS011;6735;51.456;12.626;2022-07-23T10:07:46;10.20;;;9.30;;
13331;SDS011;6735;51.456;12.626;2022-07-23T10:10:12;11.40;;;10.10;;
13331;SDS011;6735;51.456;12.626;2022-07-23T10:12:39;9.23;;;8.43;;
13331;SDS011;6735;51.456;12.626;2022-07-23T10:15:15;10.67;;;9.27;;
13331;SDS011;6735;51.456;12.626;2022-07-23T10:17:41;10.53;;;9.53;;
13331;SDS011;6735;51.456;12.626;2022-07-23T10:20:06;11.73;;;10.73;;
13331;SDS011;6735;51.456;12.626;2022-07-23T10:22:37;11.00;;;9.60;;
13331;SDS011;6735;51.456;12.626;2022-07-23T10:28:07;10.80;;;9.80;;
13331;SDS011;6735;51.456;12.626;2022-07-23T10:31:00;11.37;;;10.17;;
13331;SDS011;6735;51.456;12.626;2022-07-23T10:36:40;10.20;;;9.20;;
13331;SDS011;6735;51.456;12.626;2022-07-23T10:39:28;10.60;;;9.67;;
13331;SDS011;6735;51.456;12.626;2022-07-23T10:42:07;9.90;;;8.93;;
13331;SDS011;6735;51.456;12.626;2022-07-23T10:44:39;11.23;;;10.17;;
13331;SDS011;6735;51.456;12.626;2022-07-23T10:47:07;11.50;;;10.50;;
13331;SDS011;6735;51.456;12.626;2022-07-23T10:49:39;10.87;;;9.77;;
13331;SDS011;6735;51.456;12.626;2022-07-23T10:54:53;10.57;;;9.50;;
13331;SDS011;6735;51.456;12.626;2022-07-23T10:57:21;11.37;;;10.17;;
13331;SDS011;6735;51.456;12.626;2022-07-23T11:02:37;11.53;;;10.50;;
13331;SDS011;6735;51.456;12.626;2022-07-23T11:05:05;11.47;;;9.67;;
13331;SDS011;6735;51.456;12.626;2022-07-23T11:08:10;10.63;;;9.57;;
13331;SDS011;6735;51.456;12.626;2022-07-23T11:10:48;11.70;;;10.60;;
13331;SDS011;6735;51.456;12.626;2022-07-23T11:32:00;15.17;;;13.77;;
13331;SDS011;6735;51.456;12.626;2022-07-23T11:37:00;13.90;;;12.80;;
13331;SDS011;6735;51.456;12.626;2022-07-23T11:39:27;13.50;;;12.40;;
13331;SDS011;6735;51.456;12.626;2022-07-23T11:41:53;12.53;;;11.43;;
13331;SDS011;6735;51.456;12.626;2022-07-23T11:46:59;12.93;;;11.73;;
13331;SDS011;6735;51.456;12.626;2022-07-23T11:49:26;14.00;;;12.70;;
13331;SDS011;6735;51.456;12.626;2022-07-23T11:52:13;13.70;;;12.43;;
13331;SDS011;6735;51.456;12.626;2022-07-23T11:57:13;14.43;;;13.13;;
13331;SDS011;6735;51.456;12.626;2022-07-23T11:59:39;14.23;;;12.87;;
13331;SDS011;6735;51.456;12.626;2022-07-23T12:02:06;13.70;;;12.43;;
13331;SDS011;6735;51.456;12.626;2022-07-23T12:04:42;14.00;;;12.70;;
13331;SDS011;6735;51.456;12.626;2022-07-23T12:10:09;14.00;;;12.60;;
13331;SDS011;6735;51.456;12.626;2022-07-23T12:12:38;13.47;;;12.20;;
13331;SDS011;6735;51.456;12.626;2022-07-23T12:15:06;14.23;;;12.73;;
13331;SDS011;6735;51.456;12.626;2022-07-23T12:17:34;14.33;;;12.93;;
13331;SDS011;6735;51.456;12.626;2022-07-23T12:20:03;13.80;;;12.70;;
13331;SDS011;6735;51.456;12.626;2022-07-23T12:22:35;12.53;;;11.43;;
13331;SDS011;6735;51.456;12.626;2022-07-23T12:25:12;14.73;;;13.43;;
13331;SDS011;6735;51.456;12.626;2022-07-23T12:27:42;14.73;;;13.43;;
13331;SDS011;6735;51.456;12.626;2022-07-23T12:30:15;15.17;;;13.87;;
13331;SDS011;6735;51.456;12.626;2022-07-23T12:32:46;15.47;;;14.07;;
13331;SDS011;6735;51.456;12.626;2022-07-23T12:35:12;14.90;;;13.57;;
13331;SDS011;6735;51.456;12.626;2022-07-23T12:37:40;13.90;;;12.77;;
13331;SDS011;6735;51.456;12.626;2022-07-23T12:40:23;14.20;;;12.90;;
13331;SDS011;6735;51.456;12.626;2022-07-23T12:42:55;15.17;;;13.90;;
13331;SDS011;6735;51.456;12.626;2022-07-23T12:45:27;14.57;;;13.37;;
13331;SDS011;6735;51.456;12.626;2022-07-23T12:47:57;14.23;;;13.03;;
13331;SDS011;6735;51.456;12.626;2022-07-23T12:50:32;14.20;;;12.97;;
13331;SDS011;6735;51.456;12.626;2022-07-23T12:53:04;14.03;;;12.70;;
13331;SDS011;6735;51.456;12.626;2022-07-23T12:55:35;13.77;;;12.60;;
13331;SDS011;6735;51.456;12.626;2022-07-23T12:58:07;13.20;;;12.00;;
13331;SDS011;6735;51.456;12.626;2022-07-23T13:05:55;14.70;;;13.23;;
13331;SDS011;6735;51.456;12.626;2022-07-23T13:08:22;14.90;;;13.50;;
13331;SDS011;6735;51.456;12.626;2022-07-23T13:10:48;13.20;;;12.17;;
13331;SDS011;6735;51.456;12.626;2022-07-23T13:13:16;13.43;;;12.07;;
13331;SDS011;6735;51.456;12.626;2022-07-23T13:15:42;13.50;;;12.40;;
13331;SDS011;6735;51.456;12.626;2022-07-23T13:18:08;13.77;;;12.57;;
13331;SDS011;6735;51.456;12.626;2022-07-23T13:20:34;16.50;;;15.07;;
13331;SDS011;6735;51.456;12.626;2022-07-23T13:23:00;15.43;;;14.07;;
13331;SDS011;6735;51.456;12.626;2022-07-23T13:25:26;15.73;;;14.40;;
13331;SDS011;6735;51.456;12.626;2022-07-23T13:27:51;15.57;;;14.37;;
13331;SDS011;6735;51.456;12.626;2022-07-23T13:30:17;19.00;;;17.30;;
13331;SDS011;6735;51.456;12.626;2022-07-23T13:32:42;17.50;;;16.00;;
13331;SDS011;6735;51.456;12.626;2022-07-23T13:35:08;18.40;;;16.70;;
13331;SDS011;6735;51.456;12.626;2022-07-23T13:37:34;18.47;;;16.97;;
13331;SDS011;6735;51.456;12.626;2022-07-23T13:39:59;17.93;;;16.53;;
13331;SDS011;6735;51.456;12.626;2022-07-23T13:42:25;17.93;;;16.53;;
13331;SDS011;6735;51.456;12.626;2022-07-23T13:44:50;18.77;;;17.13;;
13331;SDS011;6735;51.456;12.626;2022-07-23T13:47:16;18.77;;;17.17;;
13331;SDS011;6735;51.456;12.626;2022-07-23T13:49:41;18.00;;;16.50;;
13331;SDS011;6735;51.456;12.626;2022-07-23T13:52:07;18.00;;;16.50;;
13331;SDS011;6735;51.456;12.626;2022-07-23T13:54:32;18.07;;;16.37;;
13331;SDS011;6735;51.456;12.626;2022-07-23T13:56:58;17.07;;;15.67;;
13331;SDS011;6735;51.456;12.626;2022-07-23T13:59:23;17.90;;;16.50;;
13331;SDS011;6735;51.456;12.626;2022-07-23T14:01:49;17.47;;;16.07;;
13331;SDS011;6735;51.456;12.626;2022-07-23T14:04:14;15.47;;;14.27;;
13331;SDS011;6735;51.456;12.626;2022-07-23T14:06:40;15.63;;;14.27;;
13331;SDS011;6735;51.456;12.626;2022-07-23T14:09:05;14.40;;;13.30;;
13331;SDS011;6735;51.456;12.626;2022-07-23T14:11:31;13.17;;;12.17;;
13331;SDS011;6735;51.456;12.626;2022-07-23T14:13:56;13.83;;;12.50;;
13331;SDS011;6735;51.456;12.626;2022-07-23T14:16:23;12.43;;;11.43;;
13331;SDS011;6735;51.456;12.626;2022-07-23T14:18:49;10.63;;;9.77;;
13331;SDS011;6735;51.456;12.626;2022-07-23T14:21:14;10.10;;;9.27;;
13331;SDS011;6735;51.456;12.626;2022-07-23T14:23:40;9.70;;;8.90;;
13331;SDS011;6735;51.456;12.626;2022-07-23T14:26:05;11.13;;;10.23;;
13331;SDS011;6735;51.456;12.626;2022-07-23T14:28:34;10.30;;;9.40;;
13331;SDS011;6735;51.456;12.626;2022-07-23T14:30:59;10.27;;;9.30;;
13331;SDS011;6735;51.456;12.626;2022-07-23T14:33:25;10.30;;;9.50;;
13331;SDS011;6735;51.456;12.626;2022-07-23T14:35:50;10.53;;;9.60;;
13331;SDS011;6735;51.456;12.626;2022-07-23T14:38:16;9.90;;;9.00;;
13331;SDS011;6735;51.456;12.626;2022-07-23T14:40:41;9.90;;;9.10;;
13331;SDS011;6735;51.456;12.626;2022-07-23T14:43:07;9.90;;;9.03;;
13331;SDS011;6735;51.456;12.626;2022-07-23T14:45:33;10.17;;;9.40;;
13331;SDS011;6735;51.456;12.626;2022-07-23T14:47:59;10.50;;;9.60;;
13331;SDS011;6735;51.456;12.626;2022-07-23T14:50:24;11.20;;;10.13;;
13331;SDS011;6735;51.456;12.626;2022-07-23T14:52:51;10.57;;;9.70;;
13331;SDS011;6735;51.456;12.626;2022-07-23T14:55:16;10.40;;;9.60;;
13331;SDS011;6735;51.456;12.626;2022-07-23T14:57:43;9.80;;;9.00;;
13331;SDS011;6735;51.456;12.626;2022-07-23T15:00:09;9.80;;;9.00;;
13331;SDS011;6735;51.456;12.626;2022-07-23T15:02:34;9.30;;;8.53;;
13331;SDS011;6735;51.456;12.626;2022-07-23T15:05:00;9.17;;;8.37;;
13331;SDS011;6735;51.456;12.626;2022-07-23T15:07:26;8.87;;;8.07;;
13331;SDS011;6735;51.456;12.626;2022-07-23T15:09:52;8.67;;;8.07;;
13331;SDS011;6735;51.456;12.626;2022-07-23T15:12:18;8.80;;;8.10;;
13331;SDS011;6735;51.456;12.626;2022-07-23T15:14:43;8.67;;;7.90;;
13331;SDS011;6735;51.456;12.626;2022-07-23T15:17:09;8.00;;;7.40;;
13331;SDS011;6735;51.456;12.626;2022-07-23T15:19:34;9.70;;;9.00;;
13331;SDS011;6735;51.456;12.626;2022-07-23T15:22:00;8.87;;;8.23;;
13331;SDS011;6735;51.456;12.626;2022-07-23T15:24:25;9.83;;;8.97;;
13331;SDS011;6735;51.456;12.626;2022-07-23T15:26:51;9.43;;;8.73;;